Time;durP1;ratioP1;P1;durP2;ratioP2;P2;SDS_P1;SDS_P2;PMS_P1;PMS_P2;Temp;Humidity;BMP_temperature;BMP_pressure;BME280_temperature;BME280_humidity;BME280_pressure;Samples;Min_cycle;Max_cycle;Signal;HPM_P1;HPM_P2
2022/11/24 00:00:32;;;;;;;4.72;3.92;;;;;;;6.57;100.00;100107.31;5069870;28;20027;-75
2022/11/24 00:02:59;;;;;;;6.63;3.50;;;;;;;6.63;100.00;100110.38;5066786;28;20074;-75
2022/11/24 00:05:25;;;;;;;5.55;3.47;;;;;;;6.62;100.00;100112.16;5054660;28;20509;-75
2022/11/24 00:07:50;;;;;;;4.20;2.88;;;;;;;6.63;100.00;100110.38;5050142;28;20036;-74
2022/11/24 00:10:16;;;;;;;6.68;4.65;;;;;;;6.61;100.00;100107.88;5074119;28;20082;-75
2022/11/24 00:12:41;;;;;;;4.68;3.38;;;;;;;6.58;100.00;100113.41;5074339;28;20046;-75
2022/11/24 00:15:06;;;;;;;5.57;3.58;;;;;;;6.57;100.00;100117.00;5023897;28;20041;-75
2022/11/24 00:17:32;;;;;;;4.18;2.97;;;;;;;6.59;100.00;100115.06;5073324;28;20028;-75
2022/11/24 00:19:57;;;;;;;6.80;3.03;;;;;;;6.56;100.00;100110.94;5056388;28;20040;-77
2022/11/24 00:22:22;;;;;;;7.38;4.57;;;;;;;6.66;100.00;100126.63;5058726;28;20029;-75
2022/11/24 00:24:48;;;;;;;8.57;3.38;;;;;;;6.69;100.00;100125.53;5063125;28;20064;-75
2022/11/24 00:27:13;;;;;;;4.22;3.83;;;;;;;6.64;100.00;100112.00;5044642;28;20119;-75
2022/11/24 00:29:39;;;;;;;5.32;3.30;;;;;;;6.54;100.00;100102.38;5060543;28;20209;-75
2022/11/24 00:32:05;;;;;;;9.35;3.70;;;;;;;6.72;100.00;100126.06;5059394;28;20511;-75
2022/11/24 00:34:31;;;;;;;7.30;5.40;;;;;;;6.67;100.00;100128.28;5078865;28;20040;-75
2022/11/24 00:36:56;;;;;;;5.28;2.90;;;;;;;6.60;100.00;100124.59;5061444;28;20051;-75
2022/11/24 00:39:21;;;;;;;4.47;3.50;;;;;;;6.65;100.00;100116.28;5076427;28;20032;-75
2022/11/24 00:41:47;;;;;;;5.15;3.42;;;;;;;6.48;100.00;100097.69;5078191;28;20066;-75
2022/11/24 00:44:12;;;;;;;6.22;3.13;;;;;;;6.60;100.00;100116.72;5044258;28;20050;-75
2022/11/24 00:46:37;;;;;;;5.32;3.72;;;;;;;6.59;100.00;100121.13;5061929;28;20507;-75
2022/11/24 00:49:03;;;;;;;10.15;5.30;;;;;;;6.57;100.00;100124.84;5077327;28;20070;-75
2022/11/24 00:51:29;;;;;;;3.92;3.53;;;;;;;6.50;100.00;100127.22;5076722;28;20035;-75
2022/11/24 00:53:55;;;;;;;3.75;2.63;;;;;;;6.45;100.00;100129.44;5077898;28;20444;-75
2022/11/24 00:56:21;;;;;;;5.40;3.70;;;;;;;6.41;100.00;100109.72;5077955;28;20024;-75
2022/11/24 00:58:47;;;;;;;7.75;3.65;;;;;;;6.42;100.00;100134.94;5078200;28;20148;-75
2022/11/24 01:01:23;;;;;;;6.50;3.47;;;;;;;6.42;100.00;100131.50;5059456;28;20081;-75
2022/11/24 01:03:49;;;;;;;9.25;2.83;;;;;;;6.42;100.00;100127.09;5059997;28;20016;-75
2022/11/24 01:06:23;;;;;;;3.20;2.90;;;;;;;6.30;100.00;100112.50;5079146;28;20040;-75
2022/11/24 01:08:49;;;;;;;3.15;2.80;;;;;;;6.43;100.00;100135.81;5077812;28;20027;-75
2022/11/24 01:11:17;;;;;;;3.65;2.60;;;;;;;6.38;100.00;100147.53;5061048;28;20151;-77
2022/11/24 01:13:45;;;;;;;6.75;2.60;;;;;;;6.28;100.00;100132.78;5075670;28;20017;-75
2022/11/24 01:16:22;;;;;;;12.60;4.78;;;;;;;6.38;100.00;100149.34;5075954;28;20024;-76
2022/11/24 01:18:48;;;;;;;7.85;4.80;;;;;;;6.22;100.00;100134.16;5059825;28;20063;-76
2022/11/24 01:21:14;;;;;;;10.95;3.60;;;;;;;6.37;100.00;100158.97;5060936;28;20781;-77
2022/11/24 01:23:40;;;;;;;4.05;2.88;;;;;;;6.32;100.00;100161.19;5059192;28;20109;-76
2022/11/24 01:26:06;;;;;;;5.45;4.18;;;;;;;6.19;100.00;100152.78;5075071;28;20032;-77
2022/11/24 01:28:32;;;;;;;7.00;3.13;;;;;;;6.27;100.00;100154.69;5075795;28;20085;-77
2022/11/24 01:30:59;;;;;;;14.93;3.08;;;;;;;6.26;100.00;100171.41;5059938;28;20439;-76
2022/11/24 01:33:25;;;;;;;10.38;3.80;;;;;;;6.37;100.00;100190.41;5060472;28;20063;-77
2022/11/24 01:35:50;;;;;;;4.97;2.65;;;;;;;6.40;100.00;100189.31;5059569;28;20058;-77
2022/11/24 01:38:16;;;;;;;8.00;3.47;;;;;;;6.41;100.00;100190.16;5076135;28;20024;-77
2022/11/24 01:40:41;;;;;;;5.60;2.60;;;;;;;6.42;100.00;100192.63;5018051;28;20055;-77
2022/11/24 01:43:18;;;;;;;8.30;1.73;;;;;;;6.26;100.00;100176.63;5060437;28;20044;-77
2022/11/24 01:45:45;;;;;;;4.72;2.78;;;;;;;6.42;100.00;100203.09;5061527;28;20020;-76
2022/11/24 01:48:19;;;;;;;2.47;2.28;;;;;;;6.42;100.00;100205.72;5060724;28;20028;-77
2022/11/24 01:50:47;;;;;;;4.32;2.33;;;;;;;6.41;100.00;100200.63;5075997;28;20028;-76
2022/11/24 01:53:13;;;;;;;4.80;3.22;;;;;;;6.30;100.00;100188.50;5056365;28;20028;-76
2022/11/24 01:55:40;;;;;;;7.30;3.53;;;;;;;6.36;100.00;100209.75;5044678;28;20064;-77
2022/11/24 01:58:19;;;;;;;3.13;1.98;;;;;;;6.25;100.00;100191.53;5076275;28;20036;-77
2022/11/24 02:00:45;;;;;;;4.45;2.45;;;;;;;6.35;100.00;100213.31;5059583;28;20052;-77
2022/11/24 02:03:19;;;;;;;5.68;2.60;;;;;;;6.29;100.00;100200.78;5076218;28;20062;-77
2022/11/24 02:06:09;;;;;;;14.93;2.22;;;;;;;6.38;100.00;100214.84;5077159;28;20027;-77
2022/11/24 02:08:47;;;;;;;5.07;2.97;;;;;;;6.39;100.00;100216.50;5076792;28;20560;-77
2022/11/24 02:11:12;;;;;;;5.03;2.30;;;;;;;6.17;100.00;100192.22;5076880;28;20119;-77
2022/11/24 02:13:39;;;;;;;2.90;1.95;;;;;;;6.31;100.00;100222.41;5076200;28;21258;-77
2022/11/24 02:16:10;;;;;;;5.75;2.50;;;;;;;6.45;100.00;100234.28;5058157;28;20120;-77
2022/11/24 02:18:37;;;;;;;9.27;3.60;;;;;;;6.43;100.00;100232.78;5076147;28;20024;-77
2022/11/24 02:21:04;;;;;;;2.20;1.92;;;;;;;6.50;100.00;100247.81;5076563;28;20484;-77
2022/11/24 02:23:42;;;;;;;4.65;2.17;;;;;;;6.53;100.00;100252.78;5076533;28;20047;-76
2022/11/24 02:26:36;;;;;;;8.57;2.08;;;;;;;6.59;100.00;100241.72;5072745;28;20598;-76
2022/11/24 02:29:01;;;;;;;7.68;2.38;;;;;;;6.62;100.00;100247.66;5076157;28;20031;-76
2022/11/24 02:31:27;;;;;;;1.77;1.15;;;;;;;6.55;100.00;100235.13;5076174;28;20074;-76
2022/11/24 02:33:54;;;;;;;11.48;2.97;;;;;;;6.68;100.00;100250.56;5058717;28;20032;-76
2022/11/24 02:36:20;;;;;;;3.08;2.83;;;;;;;6.75;100.00;100267.41;5073899;28;20520;-76
2022/11/24 02:38:45;;;;;;;8.65;1.55;;;;;;;6.73;100.00;100263.28;5057951;28;20066;-76
2022/11/24 02:41:16;;;;;;;5.47;2.53;;;;;;;6.74;100.00;100257.88;5075936;28;20039;-76
2022/11/24 02:43:46;;;;;;;4.07;1.83;;;;;;;6.76;100.00;100268.22;5072680;28;20506;-77
2022/11/24 02:46:11;;;;;;;5.30;2.10;;;;;;;6.71;100.00;100252.09;5076560;28;20042;-77
2022/11/24 02:48:37;;;;;;;2.92;1.63;;;;;;;6.73;100.00;100261.47;5042426;28;20036;-76
2022/11/24 02:51:03;;;;;;;16.00;2.53;;;;;;;6.66;100.00;100242.00;5057982;28;20104;-76
2022/11/24 02:53:28;;;;;;;2.25;1.88;;;;;;;6.66;100.00;100243.78;5055052;28;20552;-76
2022/11/24 02:55:53;;;;;;;6.28;2.45;;;;;;;6.78;100.00;100261.88;5042598;28;20135;-76
2022/11/24 02:58:19;;;;;;;2.60;2.42;;;;;;;6.79;100.00;100262.69;5075119;28;20056;-76
2022/11/24 03:00:45;;;;;;;3.70;2.28;;;;;;;6.74;100.00;100255.25;5055899;28;20032;-76
2022/11/24 03:03:10;;;;;;;3.67;3.13;;;;;;;6.71;100.00;100254.72;5072153;28;20032;-76
2022/11/24 03:05:36;;;;;;;6.57;2.10;;;;;;;6.62;100.00;100239.78;5056393;28;20028;-76
2022/11/24 03:08:01;;;;;;;1.60;1.27;;;;;;;6.72;100.00;100261.59;5055953;28;20403;-76
2022/11/24 03:10:28;;;;;;;3.20;2.08;;;;;;;6.63;100.00;100251.97;5074304;28;20749;-76
2022/11/24 03:12:53;;;;;;;1.60;1.27;;;;;;;6.71;100.00;100270.44;5040835;28;20035;-76
2022/11/24 03:15:18;;;;;;;2.25;1.42;;;;;;;6.70;100.00;100274.03;5072228;28;20044;-76
2022/11/24 03:17:44;;;;;;;6.03;1.40;;;;;;;6.66;100.00;100272.63;5057539;28;20453;-76
2022/11/24 03:20:10;;;;;;;3.03;1.88;;;;;;;6.68;100.00;100273.34;5055060;28;20527;-76
2022/11/24 03:22:35;;;;;;;2.35;1.40;;;;;;;6.58;100.00;100258.44;5072387;28;20040;-76
2022/11/24 03:25:01;;;;;;;1.88;1.67;;;;;;;6.70;100.00;100268.78;5057837;28;20056;-76
2022/11/24 03:27:26;;;;;;;3.17;1.92;;;;;;;6.73;100.00;100271.97;5075445;28;20044;-77
2022/11/24 03:29:51;;;;;;;5.10;2.13;;;;;;;6.77;100.00;100280.34;5075561;28;20048;-77
2022/11/24 03:32:17;;;;;;;3.25;1.73;;;;;;;6.69;100.00;100265.34;5057640;28;20081;-76
2022/11/24 03:34:42;;;;;;;3.03;1.85;;;;;;;6.71;100.00;100265.22;5052932;28;20024;-76
2022/11/24 03:37:07;;;;;;;6.90;1.92;;;;;;;6.82;100.00;100272.09;5055824;28;20038;-77
2022/11/24 03:39:33;;;;;;;17.20;2.08;;;;;;;6.90;100.00;100286.19;5056661;28;20585;-77
2022/11/24 03:41:58;;;;;;;4.43;1.73;;;;;;;6.84;100.00;100281.47;5073203;28;20024;-77
2022/11/24 03:44:23;;;;;;;3.53;1.52;;;;;;;6.90;100.00;100291.41;5039455;28;20047;-77
2022/11/24 03:46:50;;;;;;;1.45;1.10;;;;;;;6.89;100.00;100300.25;5056905;28;20029;-76
2022/11/24 03:49:16;;;;;;;2.70;1.52;;;;;;;6.91;100.00;100303.56;5074806;28;20098;-76
2022/11/24 03:51:41;;;;;;;6.93;1.65;;;;;;;6.92;100.00;100305.19;5075338;28;20542;-76
2022/11/24 03:54:07;;;;;;;7.65;1.83;;;;;;;6.89;100.00;100299.41;5054770;28;20063;-76
2022/11/24 03:56:32;;;;;;;2.55;1.27;;;;;;;6.83;100.00;100295.53;5040325;28;20054;-76
2022/11/24 03:58:57;;;;;;;13.95;1.80;;;;;;;6.79;100.00;100278.44;5055412;28;20033;-76
2022/11/24 04:01:23;;;;;;;5.50;2.00;;;;;;;6.74;100.00;100288.50;5055723;28;20064;-76
2022/11/24 04:03:48;;;;;;;3.47;1.92;;;;;;;6.77;100.00;100296.94;5073584;28;20025;-76
2022/11/24 04:06:13;;;;;;;3.50;2.75;;;;;;;6.77;100.00;100307.44;5056383;28;20059;-76
2022/11/24 04:08:39;;;;;;;8.93;1.70;;;;;;;6.83;100.00;100316.53;5074506;28;20476;-76
2022/11/24 04:11:04;;;;;;;7.03;1.83;;;;;;;6.76;100.00;100302.31;5056059;28;20028;-76
2022/11/24 04:13:30;;;;;;;2.92;1.05;;;;;;;6.88;100.00;100324.84;5055606;28;20042;-77
2022/11/24 04:15:55;;;;;;;12.73;1.73;;;;;;;6.87;100.00;100317.91;5072090;28;20042;-77
2022/11/24 04:18:21;;;;;;;3.80;1.88;;;;;;;6.78;100.00;100316.94;5073610;28;20036;-77
2022/11/24 04:20:50;;;;;;;11.27;2.85;;;;;;;6.87;100.00;100330.22;5073810;28;20023;-76
2022/11/24 04:23:15;;;;;;;4.80;2.05;;;;;;;6.87;100.00;100348.56;5073266;28;20393;-76
2022/11/24 04:25:42;;;;;;;2.78;1.90;;;;;;;6.83;100.00;100337.50;5056252;28;20076;-76
2022/11/24 04:28:08;;;;;;;2.97;1.50;;;;;;;6.81;100.00;100342.06;5055641;28;20515;-76
2022/11/24 04:30:35;;;;;;;10.18;1.48;;;;;;;6.69;100.00;100332.69;5076163;28;20035;-77
2022/11/24 04:33:01;;;;;;;8.23;2.05;;;;;;;6.74;100.00;100343.59;5071692;28;20056;-76
2022/11/24 04:35:26;;;;;;;3.42;1.70;;;;;;;6.82;100.00;100359.47;5055151;28;20063;-77
2022/11/24 04:37:51;;;;;;;4.38;1.45;;;;;;;6.47;100.00;100310.19;5073615;28;20111;-77
2022/11/24 04:40:17;;;;;;;1.52;0.82;;;;;;;6.79;100.00;100351.88;5057923;28;20036;-77
2022/11/24 04:42:43;;;;;;;11.90;2.72;;;;;;;6.80;100.00;100364.03;5040494;28;20028;-77
2022/11/24 04:45:09;;;;;;;5.85;1.98;;;;;;;6.83;100.00;100369.00;5055177;28;20124;-76
2022/11/24 04:47:35;;;;;;;5.68;1.38;;;;;;;6.78;100.00;100371.22;5073922;28;20028;-76
2022/11/24 04:50:00;;;;;;;9.45;1.98;;;;;;;6.70;100.00;100365.81;5052224;28;20086;-76
2022/11/24 04:52:26;;;;;;;4.03;1.77;;;;;;;6.61;100.00;100351.72;5074344;28;20028;-76
2022/11/24 04:54:51;;;;;;;5.38;1.13;;;;;;;6.53;100.00;100355.03;5075272;28;20036;-76
2022/11/24 04:57:23;;;;;;;6.68;2.28;;;;;;;6.61;100.00;100369.25;5040802;28;20020;-76
2022/11/24 04:59:50;;;;;;;11.13;2.38;;;;;;;6.49;100.00;100361.50;5073294;28;20459;-76
2022/11/24 05:02:16;;;;;;;3.80;1.20;;;;;;;6.55;100.00;100376.72;5041304;28;20107;-76
2022/11/24 05:04:42;;;;;;;3.80;2.00;;;;;;;6.52;100.00;100374.34;5042723;28;20032;-76
2022/11/24 05:07:10;;;;;;;2.83;2.13;;;;;;;6.33;100.00;100350.72;5073619;28;20505;-76
2022/11/24 05:10:33;;;;;;;2.95;1.20;;;;;;;6.40;100.00;100383.28;5076730;28;20095;-76
2022/11/24 05:12:21;;;;;;;15.50;1.60;;;;;;;6.36;100.00;100371.44;5078472;28;20032;-77
2022/11/24 05:14:46;;;;;;;4.97;1.83;;;;;;;6.38;100.00;100379.97;5043025;28;20040;-76
2022/11/24 05:17:11;;;;;;;8.23;2.08;;;;;;;6.41;100.00;100394.59;5025279;28;20055;-76
2022/11/24 05:19:37;;;;;;;2.38;1.40;;;;;;;6.37;100.00;100388.78;5053616;28;20036;-77
2022/11/24 05:22:02;;;;;;;1.30;1.20;;;;;;;6.33;100.00;100390.84;5053378;28;20039;-77
2022/11/24 05:24:27;;;;;;;2.72;1.65;;;;;;;6.31;100.00;100397.19;5073910;28;20050;-77
2022/11/24 05:26:54;;;;;;;15.15;2.70;;;;;;;6.14;100.00;100386.38;5056270;28;20125;-76
2022/11/24 05:29:19;;;;;;;2.40;1.30;;;;;;;6.04;100.00;100371.59;5044381;28;20064;-76
2022/11/24 05:31:44;;;;;;;1.08;0.82;;;;;;;6.17;100.00;100404.47;5043535;28;20033;-76
2022/11/24 05:34:10;;;;;;;3.70;2.03;;;;;;;6.17;100.00;100404.47;5057450;28;20032;-76
2022/11/24 05:36:53;;;;;;;2.25;0.88;;;;;;;6.15;100.00;100405.56;5045505;28;20051;-76
2022/11/24 05:39:19;;;;;;;1.40;0.80;;;;;;;6.10;100.00;100405.13;5063075;28;20532;-76
2022/11/24 05:41:45;;;;;;;9.18;1.77;;;;;;;6.06;100.00;100412.41;5040319;28;20017;-76
2022/11/24 05:44:10;;;;;;;4.65;1.52;;;;;;;6.04;100.00;100409.09;5059070;28;20067;-76
2022/11/24 05:46:36;;;;;;;2.40;1.38;;;;;;;6.02;100.00;100412.81;5074887;28;20036;-76
2022/11/24 05:49:02;;;;;;;16.75;1.45;;;;;;;6.00;100.00;100418.16;5060650;28;20028;-76
2022/11/24 05:51:27;;;;;;;2.75;1.83;;;;;;;5.87;100.00;100394.78;5073551;28;20125;-76
2022/11/24 05:53:52;;;;;;;5.07;1.58;;;;;;;5.96;100.00;100429.88;5058038;28;20397;-77
2022/11/24 05:56:18;;;;;;;4.85;1.77;;;;;;;5.88;100.00;100433.13;5074686;28;20028;-76
2022/11/24 05:58:43;;;;;;;6.68;1.80;;;;;;;5.88;100.00;100440.13;5054855;28;20060;-76
2022/11/24 06:01:08;;;;;;;2.45;2.00;;;;;;;5.74;100.00;100421.16;5056355;28;20032;-76
2022/11/24 06:03:34;;;;;;;5.07;0.90;;;;;;;5.85;100.00;100450.88;5057129;28;20051;-76
2022/11/24 06:05:59;;;;;;;3.55;1.98;;;;;;;5.88;100.00;100453.22;5057039;28;20032;-76
2022/11/24 06:08:25;;;;;;;2.35;1.35;;;;;;;5.87;100.00;100468.13;5073914;28;20044;-76
2022/11/24 06:10:50;;;;;;;4.03;1.58;;;;;;;5.70;100.00;100435.47;5052980;28;20688;-76
2022/11/24 06:13:15;;;;;;;3.83;1.20;;;;;;;5.85;100.00;100477.06;5039313;28;20403;-77
2022/11/24 06:15:41;;;;;;;2.50;1.70;;;;;;;5.75;100.00;100469.16;5057655;28;20083;-76
2022/11/24 06:18:06;;;;;;;2.70;1.13;;;;;;;5.77;100.00;100475.91;5041964;28;20085;-76
2022/11/24 06:20:31;;;;;;;2.80;0.80;;;;;;;5.66;100.00;100465.53;5074624;28;20070;-75
2022/11/24 06:22:57;;;;;;;13.10;2.10;;;;;;;5.69;100.00;100467.88;5056431;28;20099;-76
2022/11/24 06:25:23;;;;;;;3.60;1.75;;;;;;;5.72;100.00;100477.25;5070000;28;20051;-76
2022/11/24 06:27:48;;;;;;;2.65;1.20;;;;;;;5.72;100.00;100490.34;5057758;28;20044;-75
2022/11/24 06:30:14;;;;;;;2.58;1.35;;;;;;;5.81;100.00;100492.19;5055832;28;20143;-76
2022/11/24 06:32:43;;;;;;;2.17;1.98;;;;;;;5.78;100.00;100500.31;5054222;28;20028;-76
2022/11/24 06:35:10;;;;;;;8.00;1.33;;;;;;;5.64;100.00;100485.75;5037077;28;20033;-76
2022/11/24 06:37:36;;;;;;;2.58;1.27;;;;;;;5.73;100.00;100505.13;5054057;28;20032;-76
2022/11/24 06:40:01;;;;;;;5.93;1.08;;;;;;;5.75;100.00;100511.88;5050001;28;20032;-76
2022/11/24 06:42:27;;;;;;;5.35;1.40;;;;;;;5.76;100.00;100523.19;5053467;28;20027;-76
2022/11/24 06:44:52;;;;;;;3.35;1.77;;;;;;;5.72;100.00;100516.53;5052743;28;20036;-76
2022/11/24 06:47:17;;;;;;;1.27;1.08;;;;;;;5.65;100.00;100524.06;5051543;28;20373;-76
2022/11/24 06:49:43;;;;;;;2.53;1.35;;;;;;;5.73;100.00;100534.75;5055283;28;20024;-76
2022/11/24 06:52:08;;;;;;;7.20;1.95;;;;;;;5.74;100.00;100541.63;5051223;28;20042;-75
2022/11/24 06:54:33;;;;;;;9.00;1.42;;;;;;;5.78;100.00;100539.59;5036109;28;20063;-75
2022/11/24 06:56:59;;;;;;;5.57;1.42;;;;;;;5.81;100.00;100551.59;5037817;28;20039;-75
2022/11/24 06:59:25;;;;;;;2.50;1.15;;;;;;;5.78;100.00;100556.13;5052428;28;20028;-77
2022/11/24 07:01:51;;;;;;;2.72;1.58;;;;;;;5.72;100.00;100543.53;5055445;28;21519;-76
2022/11/24 07:04:17;;;;;;;3.13;2.70;;;;;;;5.82;100.00;100558.50;5056198;28;20078;-76
2022/11/24 07:06:43;;;;;;;3.75;1.67;;;;;;;5.78;100.00;100557.94;5053105;28;20024;-75
2022/11/24 07:09:10;;;;;;;8.45;1.88;;;;;;;5.80;100.00;100565.66;5052631;28;20101;-75
2022/11/24 07:11:36;;;;;;;9.13;2.00;;;;;;;5.79;100.00;100562.19;5024078;28;20105;-75
2022/11/24 07:14:02;;;;;;;1.75;1.42;;;;;;;5.79;100.00;100572.66;5054223;28;20016;-76
2022/11/24 07:16:28;;;;;;;3.15;1.50;;;;;;;5.75;100.00;100568.66;5074264;28;20028;-75
2022/11/24 07:18:54;;;;;;;1.30;1.02;;;;;;;5.66;100.00;100565.00;5056049;28;20036;-75
2022/11/24 07:21:21;;;;;;;0.75;0.75;;;;;;;5.74;100.00;100580.06;5056770;28;20047;-75
2022/11/24 07:23:48;;;;;;;3.63;0.95;;;;;;;5.81;100.00;100590.88;5070507;28;20048;-75
2022/11/24 07:26:14;;;;;;;8.18;2.22;;;;;;;5.78;100.00;100586.72;5054512;28;20492;-75
2022/11/24 07:28:39;;;;;;;1.63;1.20;;;;;;;5.84;100.00;100596.72;5056114;28;20052;-75
2022/11/24 07:31:10;;;;;;;2.25;1.40;;;;;;;5.82;100.00;100592.56;5073654;28;20104;-75
2022/11/24 07:33:36;;;;;;;4.78;1.48;;;;;;;5.85;100.00;100592.28;5070777;28;20024;-77
2022/11/24 07:36:03;;;;;;;1.50;0.80;;;;;;;5.72;100.00;100569.72;5075025;28;20028;-75
2022/11/24 07:38:30;;;;;;;3.90;1.50;;;;;;;5.70;100.00;100574.25;5054895;28;20024;-77
2022/11/24 07:41:04;;;;;;;2.15;1.17;;;;;;;5.92;100.00;100603.94;5054341;28;20035;-77
2022/11/24 07:43:30;;;;;;;4.63;1.13;;;;;;;5.97;100.00;100609.66;5054573;28;20025;-77
2022/11/24 07:45:56;;;;;;;2.20;0.93;;;;;;;6.04;100.00;100615.25;5073609;28;20539;-75
2022/11/24 07:48:22;;;;;;;2.33;1.58;;;;;;;6.08;100.00;100611.41;5037320;28;20036;-75
2022/11/24 07:50:47;;;;;;;3.10;2.75;;;;;;;6.13;100.00;100612.66;5071740;28;20028;-75
2022/11/24 07:53:13;;;;;;;2.63;2.15;;;;;;;6.15;100.00;100621.25;5071979;28;20071;-75
2022/11/24 07:55:38;;;;;;;5.00;1.23;;;;;;;6.23;100.00;100633.72;5074335;28;20031;-75
2022/11/24 07:58:03;;;;;;;3.08;1.83;;;;;;;6.29;100.00;100627.13;5052788;28;20451;-75
2022/11/24 08:00:29;;;;;;;8.90;1.55;;;;;;;6.33;100.00;100636.41;5055026;28;20445;-77
2022/11/24 08:02:54;;;;;;;3.58;1.88;;;;;;;6.15;100.00;100600.28;5072989;28;20028;-77
2022/11/24 08:05:20;;;;;;;4.28;1.02;;;;;;;6.31;100.00;100635.69;5052568;28;20028;-75
2022/11/24 08:07:45;;;;;;;5.22;2.25;;;;;;;6.18;100.00;100615.75;5056151;28;20032;-75
2022/11/24 08:10:11;;;;;;;7.40;1.67;;;;;;;6.36;100.00;100638.78;5073117;28;20272;-77
2022/11/24 08:12:36;;;;;;;4.13;1.42;;;;;;;6.30;100.00;100636.66;5070975;28;20032;-75
2022/11/24 08:15:02;;;;;;;7.93;3.97;;;;;;;6.25;100.00;100623.94;5019621;28;20128;-77
2022/11/24 08:17:28;;;;;;;11.27;1.63;;;;;;;6.39;100.00;100644.56;5038982;28;20033;-75
2022/11/24 08:19:53;;;;;;;1.67;1.58;;;;;;;6.45;100.00;100645.88;5072516;28;20503;-75
2022/11/24 08:22:18;;;;;;;6.38;1.25;;;;;;;6.48;100.00;100645.59;5071127;28;20369;-75
2022/11/24 08:24:46;;;;;;;2.65;1.98;;;;;;;6.69;100.00;100658.72;5035442;28;20136;-75
2022/11/24 08:27:13;;;;;;;2.17;1.63;;;;;;;6.78;100.00;100644.00;5040274;28;20080;-75
2022/11/24 08:29:38;;;;;;;6.65;1.85;;;;;;;6.93;100.00;100660.22;5055114;28;20024;-75
2022/11/24 08:32:04;;;;;;;2.75;1.85;;;;;;;6.96;100.00;100657.31;5053375;28;20484;-75
2022/11/24 08:34:29;;;;;;;3.08;1.27;;;;;;;6.95;100.00;100650.44;5073970;28;20081;-75
2022/11/24 08:36:55;;;;;;;1.95;1.20;;;;;;;6.99;100.00;100647.41;5039348;28;20169;-75
2022/11/24 08:39:20;;;;;;;11.10;1.77;;;;;;;7.05;100.00;100650.44;5053133;28;20076;-75
2022/11/24 08:41:46;;;;;;;4.18;1.73;;;;;;;7.13;100.00;100666.38;5053452;28;20050;-75
2022/11/24 08:44:14;;;;;;;2.63;1.88;;;;;;;7.25;100.00;100673.22;5073853;28;20029;-75
2022/11/24 08:46:40;;;;;;;11.50;1.75;;;;;;;7.24;100.00;100675.97;5059423;28;20059;-77
2022/11/24 08:49:06;;;;;;;2.03;1.08;;;;;;;7.28;100.00;100678.19;5056210;28;20117;-76
2022/11/24 08:51:31;;;;;;;2.72;1.80;;;;;;;7.28;100.00;100667.69;5075516;28;20039;-77
2022/11/24 08:53:59;;;;;;;1.75;0.80;;;;;;;7.75;100.00;100688.97;5077231;28;20492;-76
2022/11/24 08:56:26;;;;;;;1.33;1.08;;;;;;;8.12;100.00;100692.72;5076316;28;20033;-76
2022/11/24 08:58:52;;;;;;;4.97;1.38;;;;;;;8.34;100.00;100691.59;5046475;28;20040;-76
2022/11/24 09:01:18;;;;;;;2.45;1.42;;;;;;;8.46;100.00;100673.94;5075547;28;20044;-77
2022/11/24 09:03:45;;;;;;;5.70;1.35;;;;;;;8.92;100.00;100675.75;5042271;28;20040;-76
2022/11/24 09:06:11;;;;;;;6.25;2.92;;;;;;;9.29;100.00;100698.63;5058761;28;20498;-76
2022/11/24 09:08:37;;;;;;;5.70;2.08;;;;;;;9.65;100.00;100688.19;5057926;28;20028;-76
2022/11/24 09:11:05;;;;;;;3.00;1.70;;;;;;;9.63;100.00;100680.44;5059254;28;20047;-75
2022/11/24 09:13:31;;;;;;;2.00;1.20;;;;;;;9.67;100.00;100696.78;5075005;28;20024;-75
2022/11/24 09:16:09;;;;;;;5.22;1.48;;;;;;;9.35;100.00;100698.03;5073863;28;20043;-75
2022/11/24 09:18:35;;;;;;;13.43;2.53;;;;;;;9.62;100.00;100704.28;5077209;28;20031;-75
2022/11/24 09:21:17;;;;;;;6.95;1.42;;;;;;;9.35;100.00;100697.22;5072645;28;20556;-75
2022/11/24 09:23:45;;;;;;;4.90;2.03;;;;;;;9.37;100.00;100700.53;5073074;28;20028;-75
2022/11/24 09:26:15;;;;;;;2.67;1.13;;;;;;;9.65;100.00;100706.66;5075120;28;20089;-75
2022/11/24 09:28:41;;;;;;;5.72;1.63;;;;;;;9.24;100.00;100685.91;5041688;28;20594;-75
2022/11/24 09:31:09;;;;;;;6.32;2.13;;;;;;;9.85;100.00;100713.44;5039338;28;20037;-75
2022/11/24 09:33:36;;;;;;;10.63;1.92;;;;;;;10.00;100.00;100711.13;5071082;28;20138;-75
2022/11/24 09:36:02;;;;;;;5.20;2.72;;;;;;;9.76;100.00;100711.69;5056668;28;20060;-75
2022/11/24 09:38:27;;;;;;;6.65;1.50;;;;;;;9.16;100.00;100690.22;5041331;28;20429;-76
2022/11/24 09:40:53;;;;;;;4.25;1.90;;;;;;;8.87;100.00;100709.56;5040428;28;20028;-76
2022/11/24 09:43:28;;;;;;;1.90;1.20;;;;;;;8.93;100.00;100719.53;5073806;28;20021;-76
2022/11/24 09:46:10;;;;;;;3.08;1.80;;;;;;;10.02;100.00;100732.09;5075466;28;20062;-75
2022/11/24 09:48:40;;;;;;;1.73;1.08;;;;;;;11.75;100.00;100732.28;5057872;28;20024;-75
2022/11/24 09:51:10;;;;;;;3.00;1.48;;;;;;;13.22;100.00;100725.38;5075076;28;20073;-75
2022/11/24 09:53:54;;;;;;;6.85;1.85;;;;;;;13.45;100.00;100726.31;5057037;28;20029;-76
2022/11/24 09:56:28;;;;;;;8.82;1.80;;;;;;;13.51;100.00;100709.72;5075808;28;20345;-76
2022/11/24 09:59:09;;;;;;;5.93;1.10;;;;;;;13.81;100.00;100736.47;5058261;28;20044;-76
2022/11/24 10:01:39;;;;;;;6.15;1.63;;;;;;;14.61;100.00;100727.28;5057182;28;20564;-77
2022/11/24 10:04:15;;;;;;;6.35;2.00;;;;;;;14.70;95.60;100736.84;5072559;28;20074;-76
2022/11/24 10:06:58;;;;;;;3.13;1.27;;;;;;;14.81;93.97;100755.03;5056751;28;20118;-76
2022/11/24 10:09:39;;;;;;;4.82;1.30;;;;;;;15.28;94.37;100766.34;5058199;28;20476;-76
2022/11/24 10:12:04;;;;;;;2.42;0.98;;;;;;;15.38;88.15;100760.75;5056172;28;20501;-76
2022/11/24 10:14:38;;;;;;;3.08;1.08;;;;;;;14.79;92.30;100769.50;5056739;28;20107;-76
2022/11/24 10:17:28;;;;;;;4.32;1.45;;;;;;;14.96;91.96;100746.22;5056867;28;20028;-76
2022/11/24 10:20:26;;;;;;;4.63;1.15;;;;;;;14.63;90.29;100767.78;5073245;28;20480;-76
2022/11/24 10:23:34;;;;;;;5.25;1.17;;;;;;;14.15;99.06;100761.78;5054253;28;20016;-76
2022/11/24 10:26:06;;;;;;;5.15;1.10;;;;;;;14.59;94.34;100782.44;5055427;28;20073;-76
2022/11/24 10:28:42;;;;;;;3.50;1.75;;;;;;;13.98;96.66;100774.34;5073507;28;20036;-76
2022/11/24 10:31:17;;;;;;;3.03;1.35;;;;;;;13.97;100.00;100794.72;5071263;28;20028;-75
2022/11/24 10:33:43;;;;;;;2.92;1.20;;;;;;;14.30;97.95;100778.59;5073358;28;20020;-75
2022/11/24 10:36:19;;;;;;;2.05;1.05;;;;;;;13.33;100.00;100791.34;5072387;28;20044;-77
2022/11/24 10:38:55;;;;;;;1.55;0.93;;;;;;;12.40;100.00;100784.53;5040404;28;20368;-77
2022/11/24 10:41:38;;;;;;;2.72;1.35;;;;;;;12.52;100.00;100771.81;5057363;28;20197;-76
2022/11/24 10:44:03;;;;;;;2.72;0.90;;;;;;;12.88;100.00;100803.28;5056418;28;20084;-77
2022/11/24 10:46:29;;;;;;;1.83;0.77;;;;;;;13.47;100.00;100787.97;5039117;28;20025;-77
2022/11/24 10:49:01;;;;;;;2.33;0.80;;;;;;;14.58;100.00;100775.47;5073086;28;20632;-76
2022/11/24 10:52:11;;;;;;;3.97;1.23;;;;;;;13.63;100.00;100804.81;5074395;28;20528;-76
2022/11/24 10:54:54;;;;;;;2.75;1.38;;;;;;;13.50;100.00;100808.00;4994405;28;20105;-76
2022/11/24 10:57:33;;;;;;;5.53;1.33;;;;;;;13.81;100.00;100799.31;4992247;28;20117;-76
2022/11/24 11:00:00;;;;;;;1.98;0.75;;;;;;;12.63;100.00;100815.66;4977386;28;20022;-76
2022/11/24 11:02:36;;;;;;;2.10;0.77;;;;;;;12.39;100.00;100819.09;4977655;28;20065;-75
2022/11/24 11:05:30;;;;;;;1.58;0.88;;;;;;;11.79;100.00;100823.50;4977351;28;20030;-76
2022/11/24 11:08:19;;;;;;;2.95;0.85;;;;;;;11.73;100.00;100830.25;4969449;28;20042;-76
2022/11/24 11:10:46;;;;;;;5.57;1.85;;;;;;;12.78;100.00;100835.19;4987323;28;20030;-76
2022/11/24 11:13:28;;;;;;;2.63;1.00;;;;;;;13.42;100.00;100838.03;4969328;28;20050;-76
2022/11/24 11:15:56;;;;;;;1.05;0.63;;;;;;;12.97;100.00;100828.75;4991708;28;20074;-76
2022/11/24 11:18:25;;;;;;;1.88;1.08;;;;;;;12.84;100.00;100809.88;4975499;28;20042;-76
2022/11/24 11:20:54;;;;;;;1.77;0.88;;;;;;;12.90;100.00;100828.59;4993590;28;20483;-75
2022/11/24 11:23:25;;;;;;;3.83;1.02;;;;;;;12.25;100.00;100829.31;4976823;28;20565;-76
2022/11/24 11:26:10;;;;;;;;;;;;;;;11.87;100.00;100828.84;4975265;28;20462;-75
2022/11/24 11:28:36;;;;;;;1.02;0.60;;;;;;;11.80;100.00;100830.47;5035607;28;20412;-76